createdAt,value
2022-10-16T00:00:59.159Z,42.95
2022-10-16T00:03:43.306Z,41.97
2022-10-16T00:06:12.055Z,40.55
2022-10-16T00:08:39.912Z,40.27
2022-10-16T00:11:12.576Z,43.37
2022-10-16T00:13:41.769Z,42.40
2022-10-16T00:16:10.115Z,43.90
2022-10-16T00:18:38.212Z,41.67
2022-10-16T00:21:07.129Z,42.07
2022-10-16T00:23:34.564Z,43.27
2022-10-16T00:26:08.103Z,42.40
2022-10-16T00:28:36.177Z,43.70
2022-10-16T00:31:07.574Z,43.33
2022-10-16T00:33:35.164Z,43.03
2022-10-16T00:36:03.760Z,44.97
2022-10-16T00:38:30.815Z,44.20
2022-10-16T00:40:58.225Z,42.90
2022-10-16T00:43:44.005Z,43.40
2022-10-16T00:46:16.501Z,43.67
2022-10-16T00:48:49.569Z,44.20
2022-10-16T00:51:17.142Z,42.27
2022-10-16T00:53:45.348Z,41.90
2022-10-16T00:56:12.192Z,41.05
2022-10-16T00:58:39.275Z,44.45
2022-10-16T01:01:06.151Z,43.30
2022-10-16T01:03:36.574Z,43.03
2022-10-16T01:09:01.687Z,41.05
2022-10-16T01:11:33.506Z,40.25
2022-10-16T01:14:07.251Z,41.57
2022-10-16T01:16:53.915Z,41.20
2022-10-16T01:19:53.431Z,41.00
2022-10-16T01:22:23.598Z,40.63
2022-10-16T01:24:50.953Z,40.35
2022-10-16T01:27:31.737Z,40.75
2022-10-16T01:30:31.208Z,38.65
2022-10-16T01:33:01.930Z,40.60
2022-10-16T01:36:05.716Z,39.97
2022-10-16T01:38:40.897Z,40.90
2022-10-16T01:41:17.434Z,37.90
2022-10-16T01:43:49.305Z,40.03
2022-10-16T01:46:19.873Z,38.77
2022-10-16T01:48:49.423Z,38.95
2022-10-16T01:51:18.859Z,37.40
2022-10-16T01:53:52.106Z,37.83
2022-10-16T01:56:23.450Z,40.00
2022-10-16T01:59:12.339Z,39.37
2022-10-16T02:01:43.228Z,39.83
2022-10-16T02:04:24.743Z,39.40
2022-10-16T02:06:53.140Z,38.50
2022-10-16T02:09:20.019Z,39.67
2022-10-16T02:11:47.747Z,38.05
2022-10-16T02:14:14.411Z,39.58
2022-10-16T02:16:47.408Z,39.47
2022-10-16T02:19:16.808Z,41.38
2022-10-16T02:21:53.096Z,40.87
2022-10-16T02:24:32.378Z,40.30
2022-10-16T02:27:22.073Z,39.70
2022-10-16T02:29:59.541Z,40.13
2022-10-16T02:32:32.398Z,39.30
2022-10-16T02:35:01.071Z,40.53
2022-10-16T02:37:29.139Z,39.37
2022-10-16T02:39:58.661Z,40.40
2022-10-16T02:42:37.188Z,41.37
2022-10-16T02:45:06.000Z,39.80
2022-10-16T02:47:32.972Z,39.87
2022-10-16T02:50:00.130Z,41.90
2022-10-16T02:52:27.477Z,39.28
2022-10-16T02:54:54.706Z,38.60
2022-10-16T02:57:21.710Z,38.17
2022-10-16T02:59:48.573Z,39.75
2022-10-16T03:02:15.517Z,39.28
2022-10-16T03:04:42.295Z,39.33
2022-10-16T03:07:09.344Z,37.17
2022-10-16T03:09:36.178Z,37.67
2022-10-16T03:12:03.261Z,36.13
2022-10-16T03:14:30.307Z,37.25
2022-10-16T03:16:57.204Z,37.63
2022-10-16T03:19:24.098Z,36.25
2022-10-16T03:21:51.024Z,36.58
2022-10-16T03:24:17.862Z,36.37
2022-10-16T03:26:45.037Z,37.08
2022-10-16T03:29:11.887Z,34.88
2022-10-16T03:31:38.873Z,37.07
2022-10-16T03:34:05.569Z,36.63
2022-10-16T03:36:32.797Z,37.75
2022-10-16T03:38:59.517Z,37.33
2022-10-16T03:41:26.435Z,35.42
2022-10-16T03:43:53.134Z,36.15
2022-10-16T03:46:20.046Z,36.88
2022-10-16T03:48:46.792Z,35.40
2022-10-16T03:51:13.735Z,35.55
2022-10-16T03:53:40.451Z,36.00
2022-10-16T03:56:07.683Z,33.90
2022-10-16T03:58:34.383Z,34.67
2022-10-16T04:01:01.437Z,33.17
2022-10-16T04:03:28.319Z,34.60
2022-10-16T04:05:55.607Z,34.60
2022-10-16T04:08:22.366Z,34.55
2022-10-16T04:10:49.319Z,34.00
2022-10-16T04:13:16.219Z,33.33
2022-10-16T04:15:43.492Z,34.45
2022-10-16T04:18:10.214Z,33.63
2022-10-16T04:20:37.210Z,34.10
2022-10-16T04:23:03.969Z,32.42
2022-10-16T04:25:31.417Z,32.85
2022-10-16T04:27:58.180Z,34.22
2022-10-16T04:30:25.220Z,35.33
2022-10-16T04:32:52.776Z,35.40
2022-10-16T04:35:21.776Z,32.90
2022-10-16T04:37:48.681Z,34.70
2022-10-16T04:40:15.901Z,33.13
2022-10-16T04:42:42.734Z,32.25
2022-10-16T04:45:12.131Z,32.10
2022-10-16T04:47:41.627Z,33.13
2022-10-16T04:50:09.303Z,33.05
2022-10-16T04:55:08.229Z,31.27
2022-10-16T04:57:34.979Z,31.55
2022-10-16T05:00:01.940Z,31.42
2022-10-16T05:02:28.874Z,32.67
2022-10-16T05:04:55.899Z,31.23
2022-10-16T05:07:22.649Z,31.23
2022-10-16T05:09:49.684Z,32.45
2022-10-16T05:12:16.516Z,30.70
2022-10-16T05:14:43.491Z,30.38
2022-10-16T05:17:10.369Z,29.60
2022-10-16T05:19:37.240Z,30.50
2022-10-16T05:22:04.210Z,31.70
2022-10-16T05:24:31.199Z,30.05
2022-10-16T05:26:58.068Z,30.60
2022-10-16T05:29:25.207Z,30.83
2022-10-16T05:31:53.733Z,31.90
2022-10-16T05:34:21.785Z,30.10
2022-10-16T05:36:48.625Z,31.80
2022-10-16T05:39:16.762Z,34.88
2022-10-16T05:41:44.616Z,35.77
2022-10-16T05:44:12.123Z,34.45
2022-10-16T05:46:38.854Z,33.92
2022-10-16T05:49:05.762Z,35.87
2022-10-16T05:51:32.601Z,36.22
2022-10-16T05:53:59.592Z,34.60
2022-10-16T05:56:26.628Z,33.88
2022-10-16T05:58:53.649Z,35.10
2022-10-16T06:01:25.177Z,35.08
2022-10-16T06:03:53.126Z,32.63
2022-10-16T06:06:22.855Z,34.17
2022-10-16T06:08:50.091Z,32.73
2022-10-16T06:11:26.348Z,30.73
2022-10-16T06:13:54.973Z,33.00
2022-10-16T06:16:21.987Z,31.17
2022-10-16T06:18:49.238Z,30.55
2022-10-16T06:21:20.036Z,28.77
2022-10-16T06:23:47.637Z,28.98
2022-10-16T06:26:18.192Z,26.23
2022-10-16T06:28:45.469Z,25.25
2022-10-16T06:31:13.334Z,24.40
2022-10-16T06:33:41.039Z,26.58
2022-10-16T06:36:13.674Z,25.70
2022-10-16T06:38:41.545Z,26.88
2022-10-16T06:41:12.142Z,26.95
2022-10-16T06:43:39.200Z,27.03
2022-10-16T06:46:08.831Z,26.52
2022-10-16T06:48:36.011Z,24.85
2022-10-16T06:51:09.753Z,26.63
2022-10-16T06:53:54.542Z,28.10
2022-10-16T06:56:28.886Z,24.60
2022-10-16T06:58:56.136Z,23.85
2022-10-16T07:01:24.836Z,23.70
2022-10-16T07:03:52.844Z,22.80
2022-10-16T07:06:22.214Z,23.58
2022-10-16T07:08:50.094Z,21.95
2022-10-16T07:11:19.282Z,20.95
2022-10-16T07:13:52.552Z,21.85
2022-10-16T07:16:28.060Z,19.67
2022-10-16T07:19:00.041Z,18.40
2022-10-16T07:21:30.739Z,19.58
2022-10-16T07:24:00.422Z,18.27
2022-10-16T07:26:28.934Z,18.50
2022-10-16T07:28:56.138Z,15.65
2022-10-16T07:31:23.807Z,15.40
2022-10-16T07:33:51.859Z,15.35
2022-10-16T07:36:20.707Z,14.88
2022-10-16T07:38:48.538Z,11.80
2022-10-16T07:41:17.525Z,11.68
2022-10-16T07:43:51.738Z,10.23
2022-10-16T07:46:20.512Z,10.55
2022-10-16T07:48:48.989Z,10.32
2022-10-16T07:51:18.568Z,10.18
2022-10-16T07:53:46.132Z,9.85
2022-10-16T07:56:13.432Z,10.50
2022-10-16T07:58:40.950Z,11.23
2022-10-16T08:01:09.993Z,11.07
2022-10-16T08:03:37.661Z,11.43
2022-10-16T08:06:05.558Z,12.40
2022-10-16T08:08:32.858Z,11.80
2022-10-16T08:10:59.898Z,12.15
2022-10-16T08:13:27.618Z,12.38
2022-10-16T08:15:54.968Z,11.82
2022-10-16T08:18:22.362Z,11.70
2022-10-16T08:20:49.295Z,10.70
2022-10-16T08:23:16.234Z,10.15
2022-10-16T08:25:43.038Z,9.70
2022-10-16T08:28:12.005Z,11.18
2022-10-16T08:30:39.106Z,9.85
2022-10-16T08:33:07.420Z,9.07
2022-10-16T08:35:34.622Z,10.32
2022-10-16T08:38:04.903Z,9.45
2022-10-16T08:40:33.517Z,9.45
2022-10-16T08:43:30.175Z,8.88
2022-10-16T08:46:22.335Z,8.73
2022-10-16T08:48:55.688Z,8.68
2022-10-16T08:51:29.067Z,8.27
2022-10-16T08:54:35.747Z,8.57
2022-10-16T08:57:12.469Z,7.38
2022-10-16T08:59:39.562Z,8.30
2022-10-16T09:02:36.232Z,7.90
2022-10-16T09:05:24.219Z,7.88
2022-10-16T09:08:23.169Z,8.07
2022-10-16T09:11:25.703Z,8.52
2022-10-16T09:14:15.451Z,9.15
2022-10-16T09:16:47.420Z,8.40
2022-10-16T09:19:31.331Z,8.80
2022-10-16T09:22:02.863Z,7.78
2022-10-16T09:24:30.989Z,7.72
2022-10-16T09:26:57.950Z,8.25
2022-10-16T09:29:26.212Z,9.00
2022-10-16T09:31:55.775Z,8.23
2022-10-16T09:34:35.253Z,8.43
2022-10-16T09:37:07.097Z,7.75
2022-10-16T09:39:55.003Z,8.38
2022-10-16T09:42:35.432Z,7.82
2022-10-16T09:45:02.534Z,7.03
2022-10-16T09:47:31.641Z,7.65
2022-10-16T09:50:03.056Z,8.82
2022-10-16T09:52:31.671Z,7.18
2022-10-16T09:55:19.318Z,7.68
2022-10-16T09:57:53.759Z,7.78
2022-10-16T10:00:22.576Z,8.10
2022-10-16T10:02:50.319Z,7.13
2022-10-16T10:05:35.422Z,7.70
2022-10-16T10:08:07.370Z,7.55
2022-10-16T10:10:42.273Z,6.25
2022-10-16T10:13:21.228Z,6.00
2022-10-16T10:15:48.637Z,5.60
2022-10-16T10:18:18.690Z,5.57
2022-10-16T10:20:45.467Z,5.03
2022-10-16T10:23:24.328Z,5.03
2022-10-16T10:26:02.766Z,4.88
2022-10-16T10:28:41.751Z,5.03
2022-10-16T10:31:18.009Z,5.38
2022-10-16T10:33:55.470Z,5.32
2022-10-16T10:36:34.157Z,5.05
2022-10-16T10:39:03.889Z,5.00
2022-10-16T10:41:31.562Z,5.15
2022-10-16T10:44:07.840Z,5.28
2022-10-16T10:46:49.971Z,5.18
2022-10-16T10:49:38.177Z,6.15
2022-10-16T10:52:34.956Z,5.20
2022-10-16T10:55:17.808Z,5.57
2022-10-16T10:58:02.304Z,5.50
2022-10-16T11:00:51.901Z,5.90
2022-10-16T11:03:40.702Z,5.40
2022-10-16T11:06:13.340Z,5.20
2022-10-16T11:09:03.226Z,5.55
2022-10-16T11:11:38.760Z,5.22
2022-10-16T11:14:49.226Z,5.40
2022-10-16T11:17:35.244Z,5.50
2022-10-16T11:20:20.697Z,5.72
2022-10-16T11:22:53.842Z,5.25
2022-10-16T11:25:25.813Z,5.57
2022-10-16T11:27:58.523Z,5.10
2022-10-16T11:30:28.899Z,5.30
2022-10-16T11:33:13.372Z,4.63
2022-10-16T11:36:05.145Z,4.95
2022-10-16T11:38:39.971Z,4.93
2022-10-16T11:41:25.188Z,5.18
2022-10-16T11:44:27.679Z,5.10
2022-10-16T11:47:40.006Z,5.65
2022-10-16T11:50:23.669Z,5.10
2022-10-16T11:53:02.861Z,5.40
2022-10-16T11:55:44.771Z,5.80
2022-10-16T11:58:29.197Z,5.72
2022-10-16T12:01:16.002Z,5.85
2022-10-16T12:04:15.534Z,5.43
2022-10-16T12:06:58.869Z,5.68
2022-10-16T12:09:30.131Z,5.53
2022-10-16T12:11:57.373Z,6.43
2022-10-16T12:14:30.136Z,5.95
2022-10-16T12:17:24.893Z,5.65
2022-10-16T12:20:23.224Z,5.78
2022-10-16T12:22:59.330Z,6.07
2022-10-16T12:25:32.892Z,6.00
2022-10-16T12:28:05.882Z,5.40
2022-10-16T12:30:37.697Z,6.07
2022-10-16T12:33:07.867Z,5.35
2022-10-16T12:35:44.356Z,5.93
2022-10-16T12:38:19.506Z,5.65
2022-10-16T12:40:56.018Z,5.75
2022-10-16T12:43:39.804Z,5.68
2022-10-16T12:46:24.147Z,5.93
2022-10-16T12:49:05.905Z,5.15
2022-10-16T12:51:33.670Z,5.63
2022-10-16T12:54:05.041Z,6.07
2022-10-16T12:56:51.499Z,5.78
2022-10-16T12:59:43.298Z,5.10
2022-10-16T13:02:21.140Z,5.93
2022-10-16T13:05:11.583Z,5.10
2022-10-16T13:07:57.210Z,5.75
2022-10-16T13:10:36.221Z,5.25
2022-10-16T13:13:14.623Z,5.10
2022-10-16T13:15:57.433Z,5.13
2022-10-16T13:18:43.087Z,5.20
2022-10-16T13:21:38.431Z,5.22
2022-10-16T13:24:37.221Z,5.22
2022-10-16T13:27:19.542Z,5.55
2022-10-16T13:29:53.154Z,5.38
2022-10-16T13:32:21.177Z,5.35
2022-10-16T13:34:49.992Z,5.50
2022-10-16T13:37:22.573Z,5.13
2022-10-16T13:39:50.731Z,4.72
2022-10-16T13:42:30.329Z,5.03
2022-10-16T13:44:57.869Z,5.35
2022-10-16T13:47:27.681Z,4.72
2022-10-16T13:50:07.424Z,4.95
2022-10-16T13:52:34.405Z,5.03
2022-10-16T13:55:02.455Z,5.13
2022-10-16T13:57:29.893Z,5.35
2022-10-16T13:59:56.895Z,4.53
2022-10-16T14:02:27.922Z,5.32
2022-10-16T14:04:56.092Z,4.85
2022-10-16T14:07:26.968Z,5.50
2022-10-16T14:09:55.142Z,4.68
2022-10-16T14:12:27.157Z,5.28
2022-10-16T14:14:58.396Z,5.32
2022-10-16T14:17:30.709Z,5.22
2022-10-16T14:20:04.086Z,4.80
2022-10-16T14:22:41.817Z,5.57
2022-10-16T14:25:28.500Z,5.20
2022-10-16T14:27:59.994Z,5.53
2022-10-16T14:30:28.051Z,5.32
2022-10-16T14:33:00.433Z,5.95
2022-10-16T14:35:39.422Z,6.53
2022-10-16T14:38:07.774Z,5.63
2022-10-16T14:40:38.755Z,5.07
2022-10-16T14:43:06.393Z,5.40
2022-10-16T14:45:36.464Z,5.65
2022-10-16T14:48:18.816Z,5.32
2022-10-16T14:50:47.089Z,5.40
2022-10-16T14:53:14.814Z,6.03
2022-10-16T14:55:43.106Z,5.60
2022-10-16T14:58:21.964Z,6.00
2022-10-16T15:00:49.353Z,5.85
2022-10-16T15:03:16.521Z,6.03
2022-10-16T15:05:43.656Z,6.40
2022-10-16T15:08:10.709Z,5.78
2022-10-16T15:10:43.866Z,6.03
2022-10-16T15:13:13.788Z,5.20
2022-10-16T15:15:46.569Z,5.43
2022-10-16T15:18:15.917Z,6.07
2022-10-16T15:20:43.015Z,5.63
2022-10-16T15:23:21.994Z,6.00
2022-10-16T15:25:54.268Z,5.50
2022-10-16T15:28:22.730Z,6.25
2022-10-16T15:30:52.039Z,6.40
2022-10-16T15:33:21.217Z,6.25
2022-10-16T15:35:49.305Z,6.68
2022-10-16T15:38:17.227Z,6.18
2022-10-16T15:40:44.180Z,6.35
2022-10-16T15:43:11.562Z,6.18
2022-10-16T15:45:38.735Z,6.35
2022-10-16T15:48:05.655Z,6.07
2022-10-16T15:50:33.211Z,6.25
2022-10-16T15:53:00.085Z,6.20
2022-10-16T15:55:27.061Z,6.80
2022-10-16T15:57:53.859Z,7.40
2022-10-16T16:00:26.490Z,7.07
2022-10-16T16:02:54.482Z,7.95
2022-10-16T16:05:23.124Z,10.45
2022-10-16T16:07:51.053Z,9.77
2022-10-16T16:10:18.922Z,9.73
2022-10-16T16:12:52.474Z,9.63
2022-10-16T16:15:23.649Z,21.33
2022-10-16T16:17:50.634Z,19.60
2022-10-16T16:20:17.683Z,23.45
2022-10-16T16:22:44.575Z,11.93
2022-10-16T16:25:11.951Z,15.75
2022-10-16T16:27:39.491Z,21.60
2022-10-16T16:30:08.534Z,21.75
2022-10-16T16:32:36.235Z,14.30
2022-10-16T16:35:04.536Z,17.08
2022-10-16T16:37:31.826Z,16.15
2022-10-16T16:40:01.530Z,13.00
2022-10-16T16:42:28.889Z,13.38
2022-10-16T16:44:56.112Z,12.63
2022-10-16T16:47:22.929Z,12.18
2022-10-16T16:49:49.968Z,12.15
2022-10-16T16:52:16.841Z,12.15
2022-10-16T16:54:45.465Z,10.02
2022-10-16T16:57:12.236Z,9.43
2022-10-16T16:59:39.355Z,11.38
2022-10-16T17:02:06.626Z,10.80
2022-10-16T17:04:33.618Z,14.37
2022-10-16T17:07:00.356Z,12.65
2022-10-16T17:09:27.376Z,13.25
2022-10-16T17:11:54.154Z,12.05
2022-10-16T17:14:21.243Z,11.63
2022-10-16T17:16:49.816Z,10.30
2022-10-16T17:19:19.414Z,10.30
2022-10-16T17:21:49.082Z,9.85
2022-10-16T17:24:16.298Z,9.20
2022-10-16T17:26:48.811Z,8.65
2022-10-16T17:29:18.381Z,8.88
2022-10-16T17:31:46.600Z,7.63
2022-10-16T17:34:14.130Z,7.75
2022-10-16T17:36:44.138Z,8.00
2022-10-16T17:39:13.922Z,7.95
2022-10-16T17:41:40.813Z,7.65
2022-10-16T17:44:08.277Z,7.75
2022-10-16T17:46:39.965Z,7.43
2022-10-16T17:49:10.620Z,7.20
2022-10-16T17:51:37.437Z,8.40
2022-10-16T17:54:04.731Z,7.43
2022-10-16T17:56:31.883Z,7.93
2022-10-16T17:59:01.751Z,7.85
2022-10-16T18:01:31.660Z,7.65
2022-10-16T18:04:19.038Z,8.23
2022-10-16T18:06:47.414Z,7.72
2022-10-16T18:09:18.136Z,7.68
2022-10-16T18:11:45.414Z,8.45
2022-10-16T18:14:17.713Z,7.90
2022-10-16T18:16:44.733Z,7.65
2022-10-16T18:19:12.021Z,8.15
2022-10-16T18:21:39.074Z,7.68
2022-10-16T18:24:06.143Z,8.85
2022-10-16T18:26:33.257Z,8.02
2022-10-16T18:29:01.015Z,7.78
2022-10-16T18:31:28.857Z,8.00
2022-10-16T18:33:56.174Z,9.27
2022-10-16T18:36:34.842Z,8.98
2022-10-16T18:39:10.558Z,8.30
2022-10-16T18:41:40.945Z,8.70
2022-10-16T18:44:10.727Z,8.00
2022-10-16T18:46:38.459Z,8.63
2022-10-16T18:49:05.668Z,8.45
2022-10-16T18:51:35.678Z,8.57
2022-10-16T18:54:07.365Z,9.57
2022-10-16T18:56:34.232Z,10.60
2022-10-16T18:59:04.015Z,10.20
2022-10-16T19:01:33.174Z,10.70
2022-10-16T19:04:09.344Z,10.70
2022-10-16T19:06:40.112Z,10.03
2022-10-16T19:09:08.498Z,8.77
2022-10-16T19:11:39.247Z,9.17
2022-10-16T19:14:08.720Z,8.67
2022-10-16T19:16:37.206Z,7.87
2022-10-16T19:19:07.556Z,9.93
2022-10-16T19:21:40.092Z,8.87
2022-10-16T19:24:08.988Z,8.07
2022-10-16T19:26:38.161Z,10.63
2022-10-16T19:29:09.219Z,9.87
2022-10-16T19:31:36.508Z,8.83
2022-10-16T19:34:04.415Z,8.10
2022-10-16T19:36:34.146Z,8.13
2022-10-16T19:39:04.730Z,7.70
2022-10-16T19:41:32.220Z,8.30
2022-10-16T19:44:03.779Z,8.00
2022-10-16T19:46:31.273Z,9.10
2022-10-16T19:49:00.771Z,9.67
2022-10-16T19:51:28.892Z,10.73
2022-10-16T19:54:01.028Z,9.37
2022-10-16T19:56:30.223Z,8.53
2022-10-16T19:58:58.613Z,8.10
2022-10-16T20:01:28.021Z,7.83
2022-10-16T20:03:55.630Z,8.37
2022-10-16T20:06:22.659Z,8.20
2022-10-16T20:08:51.703Z,7.77
2022-10-16T20:11:22.191Z,8.30
2022-10-16T20:13:49.750Z,9.97
2022-10-16T20:16:19.144Z,10.63
2022-10-16T20:18:47.976Z,11.50
2022-10-16T20:21:17.255Z,13.60
2022-10-16T20:23:45.026Z,11.80
2022-10-16T20:26:11.890Z,11.67
2022-10-16T20:28:40.893Z,9.53
2022-10-16T20:31:11.159Z,10.77
2022-10-16T20:33:38.309Z,9.80
2022-10-16T20:36:05.367Z,9.83
2022-10-16T20:38:32.336Z,10.93
2022-10-16T20:41:04.008Z,10.87
2022-10-16T20:43:31.087Z,9.53
2022-10-16T20:46:04.299Z,10.43
2022-10-16T20:48:32.168Z,13.53
2022-10-16T20:51:00.066Z,14.83
2022-10-16T20:53:27.071Z,12.87
2022-10-16T20:55:53.807Z,12.67
2022-10-16T20:58:20.749Z,11.27
2022-10-16T21:00:47.501Z,11.33
2022-10-16T21:03:14.524Z,11.47
2022-10-16T21:05:42.638Z,11.30
2022-10-16T21:08:09.811Z,11.00
2022-10-16T21:10:36.619Z,10.30
2022-10-16T21:13:03.879Z,9.80
2022-10-16T21:15:30.762Z,9.73
2022-10-16T21:17:57.728Z,10.10
2022-10-16T21:20:24.552Z,8.53
2022-10-16T21:22:51.625Z,10.00
2022-10-16T21:25:18.669Z,10.20
2022-10-16T21:27:45.996Z,10.33
2022-10-16T21:30:13.021Z,10.87
2022-10-16T21:32:40.358Z,10.33
2022-10-16T21:35:07.672Z,13.10
2022-10-16T21:37:35.170Z,31.33
2022-10-16T21:40:02.085Z,25.23
2022-10-16T21:42:29.462Z,16.90
2022-10-16T21:44:56.587Z,17.03
2022-10-16T21:47:23.700Z,26.43
2022-10-16T21:49:50.501Z,26.50
2022-10-16T21:52:17.532Z,27.47
2022-10-16T21:54:44.357Z,26.63
2022-10-16T21:57:11.329Z,23.67
2022-10-16T21:59:38.090Z,14.60
2022-10-16T22:02:06.056Z,27.03
2022-10-16T22:04:33.160Z,27.13
2022-10-16T22:07:00.156Z,20.83
2022-10-16T22:09:27.091Z,21.60
2022-10-16T22:11:54.025Z,20.60
2022-10-16T22:14:21.869Z,25.80
2022-10-16T22:16:49.883Z,21.47
2022-10-16T22:19:19.916Z,18.43
2022-10-16T22:21:48.277Z,19.03
2022-10-16T22:24:16.111Z,22.27
2022-10-16T22:26:43.518Z,22.63
2022-10-16T22:29:13.072Z,18.87
2022-10-16T22:31:40.105Z,18.83
2022-10-16T22:34:07.069Z,17.63
2022-10-16T22:36:34.282Z,19.07
2022-10-16T22:39:01.280Z,20.57
2022-10-16T22:41:28.508Z,22.87
2022-10-16T22:43:55.333Z,20.43
2022-10-16T22:46:25.651Z,18.53
2022-10-16T22:48:52.902Z,18.83
2022-10-16T22:51:20.372Z,18.20
2022-10-16T22:53:49.428Z,19.63
2022-10-16T22:56:19.507Z,18.37
2022-10-16T22:58:46.395Z,15.50
2022-10-16T23:01:16.661Z,18.73
2022-10-16T23:03:43.467Z,16.17
2022-10-16T23:06:10.462Z,18.70
2022-10-16T23:08:37.308Z,18.90
2022-10-16T23:11:09.344Z,19.37
2022-10-16T23:13:38.058Z,16.83
2022-10-16T23:16:06.607Z,14.20
2022-10-16T23:18:34.613Z,22.60
2022-10-16T23:21:09.330Z,17.93
2022-10-16T23:23:37.155Z,15.63
2022-10-16T23:26:08.581Z,17.00
2022-10-16T23:28:35.410Z,15.83
2022-10-16T23:31:05.411Z,15.07
2022-10-16T23:33:33.733Z,15.10
2022-10-16T23:36:08.173Z,17.20
2022-10-16T23:38:35.184Z,14.53
2022-10-16T23:41:02.793Z,14.20
2022-10-16T23:43:29.738Z,14.27
2022-10-16T23:45:56.917Z,16.50
2022-10-16T23:48:24.047Z,16.30
2022-10-16T23:50:51.044Z,17.17
2022-10-16T23:53:18.058Z,18.70
2022-10-16T23:55:45.146Z,19.70
2022-10-16T23:58:11.932Z,19.97
